Time;durP1;ratioP1;P1;durP2;ratioP2;P2;SDS_P1;SDS_P2;PMS_P1;PMS_P2;Temp;Humidity;BMP_temperature;BMP_pressure;BME280_temperature;BME280_humidity;BME280_pressure;Samples;Min_cycle;Max_cycle;Signal;HPM_P1;HPM_P2
2021/06/15 00:00:36;;;;;;;3.65;2.72;;;;;;;;;;5069871;28;20048;-72
2021/06/15 00:03:02;;;;;;;3.25;2.40;;;;;;;;;;5068865;28;20048;-72
2021/06/15 00:05:28;;;;;;;4.90;3.88;;;;;;;;;;5069661;28;20052;-72
2021/06/15 00:07:54;;;;;;;3.42;3.05;;;;;;;;;;5069201;28;20056;-72
2021/06/15 00:10:22;;;;;;;3.42;2.65;;;;;;;;;;5069418;28;20147;-72
2021/06/15 00:12:50;;;;;;;4.20;3.05;;;;;;;;;;5069301;28;20064;-72
2021/06/15 00:15:16;;;;;;;3.95;2.85;;;;;;;;;;5069202;28;20066;-72
2021/06/15 00:17:42;;;;;;;7.35;3.10;;;;;;;;;;5069658;28;20541;-72
2021/06/15 00:20:09;;;;;;;5.00;2.85;;;;;;;;;;5069006;28;20498;-72
2021/06/15 00:22:35;;;;;;;5.72;2.90;;;;;;;;;;5069268;28;20094;-72
2021/06/15 00:25:01;;;;;;;3.20;2.90;;;;;;;;;;5068839;28;20048;-72
2021/06/15 00:27:29;;;;;;;3.75;2.55;;;;;;;;;;5069668;28;20426;-72
2021/06/15 00:29:56;;;;;;;4.32;3.92;;;;;;;;;;5067401;28;20059;-72
2021/06/15 00:32:22;;;;;;;4.32;3.28;;;;;;;;;;5069123;28;20036;-72
2021/06/15 00:34:48;;;;;;;3.83;2.80;;;;;;;;;;5069031;28;20041;-72
2021/06/15 00:37:14;;;;;;;3.00;2.72;;;;;;;;;;5069417;28;20088;-72
2021/06/15 00:39:40;;;;;;;5.47;3.13;;;;;;;;;;5069165;28;20049;-72
2021/06/15 00:42:07;;;;;;;3.63;2.88;;;;;;;;;;5068283;28;20055;-72
2021/06/15 00:44:33;;;;;;;4.45;2.90;;;;;;;;;;5068964;28;20050;-72
2021/06/15 00:47:00;;;;;;;5.80;2.85;;;;;;;;;;5068589;28;20132;-72
2021/06/15 00:49:31;;;;;;;3.67;3.30;;;;;;;;;;5069394;28;20055;-72
2021/06/15 00:51:57;;;;;;;3.75;3.17;;;;;;;;;;5068646;28;20120;-72
2021/06/15 00:54:24;;;;;;;6.57;3.75;;;;;;;;;;5069312;28;20175;-72
2021/06/15 00:56:51;;;;;;;7.57;3.42;;;;;;;;;;5069020;28;20411;-72
2021/06/15 00:59:17;;;;;;;3.45;2.72;;;;;;;;;;5069123;28;20076;-72
2021/06/15 01:01:43;;;;;;;4.57;3.13;;;;;;;;;;5068865;28;20040;-72
2021/06/15 01:04:10;;;;;;;3.88;3.10;;;;;;;;;;5070054;28;20090;-72
2021/06/15 01:06:44;;;;;;;4.45;3.63;;;;;;;;;;5075465;28;20049;-72
2021/06/15 01:09:10;;;;;;;;;;;;;;;;;;5075946;28;20041;-72
2021/06/15 01:11:41;;;;;;;3.55;2.70;;;;;;;;;;5075598;28;19916;-72
2021/06/15 01:14:15;;;;;;;6.22;4.30;;;;;;;;;;5075016;28;20082;-72
2021/06/15 01:16:51;;;;;;;3.72;2.90;;;;;;;;;;5075722;28;20064;-72
2021/06/15 01:19:28;;;;;;;7.90;3.72;;;;;;;;;;5073726;28;20388;-72
2021/06/15 01:22:07;;;;;;;5.10;2.97;;;;;;;;;;5073910;28;20055;-72
2021/06/15 01:24:35;;;;;;;3.97;3.30;;;;;;;;;;5075339;28;20049;-72
2021/06/15 01:27:09;;;;;;;3.08;2.65;;;;;;;;;;5074901;28;20502;-72
2021/06/15 01:29:38;;;;;;;5.30;3.17;;;;;;;;;;5074145;28;20490;-72
2021/06/15 01:32:20;;;;;;;7.95;4.20;;;;;;;;;;5072330;28;20052;-72
2021/06/15 01:34:47;;;;;;;3.00;2.70;;;;;;;;;;5075105;28;20124;-72
2021/06/15 01:37:16;;;;;;;6.88;3.78;;;;;;;;;;5074826;28;20056;-72
2021/06/15 01:39:53;;;;;;;4.85;2.75;;;;;;;;;;5075706;28;20053;-72
2021/06/15 01:42:22;;;;;;;4.78;2.67;;;;;;;;;;5075381;28;20052;-72
2021/06/15 01:44:52;;;;;;;9.90;2.67;;;;;;;;;;5075247;28;20053;-72
2021/06/15 01:47:19;;;;;;;4.07;3.72;;;;;;;;;;5075568;28;20098;-72
2021/06/15 01:49:53;;;;;;;4.78;2.83;;;;;;;;;;5075584;28;20147;-72
2021/06/15 01:52:22;;;;;;;3.28;3.05;;;;;;;;;;5074993;28;20048;-72
2021/06/15 01:54:48;;;;;;;3.13;2.83;;;;;;;;;;5075168;28;20059;-72
2021/06/15 01:57:18;;;;;;;4.00;3.25;;;;;;;;;;5074976;28;20489;-72
2021/06/15 01:59:45;;;;;;;4.10;3.50;;;;;;;;;;5075560;28;20052;-72
2021/06/15 02:02:11;;;;;;;3.50;2.60;;;;;;;;;;5074645;28;20113;-72
2021/06/15 02:04:40;;;;;;;4.15;2.95;;;;;;;;;;5075156;28;20040;-72
2021/06/15 02:07:07;;;;;;;3.50;2.95;;;;;;;;;;5074728;28;20501;-72
2021/06/15 02:09:35;;;;;;;7.88;2.90;;;;;;;;;;5075290;28;20051;-72
2021/06/15 02:12:01;;;;;;;3.67;3.38;;;;;;;;;;5074208;28;20530;-72
2021/06/15 02:14:28;;;;;;;3.88;2.72;;;;;;;;;;5074994;28;20053;-72
2021/06/15 02:16:56;;;;;;;3.75;3.00;;;;;;;;;;5070586;28;20089;-72
2021/06/15 02:19:23;;;;;;;5.70;2.72;;;;;;;;;;5072329;28;20091;-72
2021/06/15 02:21:53;;;;;;;5.32;3.13;;;;;;;;;;5071259;28;20388;-72
2021/06/15 02:24:20;;;;;;;3.08;2.80;;;;;;;;;;5071418;28;20110;-72
2021/06/15 02:26:47;;;;;;;4.78;2.60;;;;;;;;;;5072048;28;20044;-72
2021/06/15 02:29:13;;;;;;;4.53;2.63;;;;;;;;;;5071772;28;20064;-72
2021/06/15 02:31:44;;;;;;;3.42;3.03;;;;;;;;;;5071616;28;20049;-72
2021/06/15 02:34:14;;;;;;;6.18;2.83;;;;;;;;;;5071007;28;20592;-72
2021/06/15 02:36:42;;;;;;;3.95;2.67;;;;;;;;;;5071400;28;20044;-72
2021/06/15 02:39:11;;;;;;;4.15;3.78;;;;;;;;;;5071294;28;20056;-72
2021/06/15 02:41:38;;;;;;;2.95;2.63;;;;;;;;;;5071806;28;20419;-72
2021/06/15 02:44:05;;;;;;;3.50;3.20;;;;;;;;;;5070458;28;20044;-72
2021/06/15 02:46:33;;;;;;;9.93;3.28;;;;;;;;;;5071947;28;20066;-72
2021/06/15 02:49:00;;;;;;;5.18;3.83;;;;;;;;;;5069221;28;20041;-72
2021/06/15 02:51:27;;;;;;;4.93;3.47;;;;;;;;;;5071331;28;20048;-72
2021/06/15 02:54:03;;;;;;;6.93;3.17;;;;;;;;;;5069989;28;20099;-72
2021/06/15 02:56:31;;;;;;;2.88;2.60;;;;;;;;;;5071476;28;20580;-72
2021/06/15 02:58:57;;;;;;;5.47;3.45;;;;;;;;;;5070324;28;20049;-72
2021/06/15 03:01:23;;;;;;;3.20;2.90;;;;;;;;;;5071178;28;20106;-72
2021/06/15 03:03:49;;;;;;;3.88;3.55;;;;;;;;;;5070667;28;20044;-72
2021/06/15 03:06:15;;;;;;;3.22;2.92;;;;;;;;;;5071014;28;20049;-72
2021/06/15 03:08:41;;;;;;;3.78;2.80;;;;;;;;;;5071043;28;20133;-72
2021/06/15 03:11:07;;;;;;;5.85;3.95;;;;;;;;;;5070074;28;20507;-72
2021/06/15 03:13:39;;;;;;;3.90;3.20;;;;;;;;;;5070466;28;20052;-72
2021/06/15 03:16:06;;;;;;;4.40;2.78;;;;;;;;;;5068574;28;20075;-72
2021/06/15 03:18:36;;;;;;;3.60;3.25;;;;;;;;;;5070681;28;20133;-72
2021/06/15 03:21:04;;;;;;;4.05;2.72;;;;;;;;;;5070173;28;20520;-72
2021/06/15 03:23:50;;;;;;;9.05;3.78;;;;;;;;;;5070301;28;20147;-72
2021/06/15 03:26:31;;;;;;;3.05;2.50;;;;;;;;;;5070317;28;20056;-72
2021/06/15 03:28:58;;;;;;;3.75;2.45;;;;;;;;;;5068704;28;20055;-72
2021/06/15 03:31:26;;;;;;;2.47;2.28;;;;;;;;;;5070244;28;20040;-72
2021/06/15 03:33:53;;;;;;;6.05;3.47;;;;;;;;;;5069648;28;20127;-72
2021/06/15 03:36:20;;;;;;;4.55;3.42;;;;;;;;;;5070210;28;20648;-72
2021/06/15 03:38:48;;;;;;;2.90;2.70;;;;;;;;;;5070423;28;20053;-72
2021/06/15 03:41:15;;;;;;;4.43;3.17;;;;;;;;;;5069800;28;20044;-72
2021/06/15 03:43:45;;;;;;;7.38;3.03;;;;;;;;;;5069709;28;20120;-72
2021/06/15 03:46:13;;;;;;;3.45;3.15;;;;;;;;;;5069461;28;20457;-72
2021/06/15 03:48:44;;;;;;;8.07;3.40;;;;;;;;;;5070110;28;20033;-72
2021/06/15 03:51:10;;;;;;;4.95;3.05;;;;;;;;;;5067906;28;20074;-72
2021/06/15 03:53:37;;;;;;;4.55;3.00;;;;;;;;;;5069583;28;20074;-72
2021/06/15 03:56:04;;;;;;;3.85;2.97;;;;;;;;;;5069570;28;20396;-72
2021/06/15 03:58:32;;;;;;;5.25;3.10;;;;;;;;;;5070148;28;20040;-72
2021/06/15 04:00:59;;;;;;;3.90;3.15;;;;;;;;;;5069532;28;20143;-72
2021/06/15 04:03:26;;;;;;;3.67;3.38;;;;;;;;;;5069993;28;20135;-72
2021/06/15 04:05:54;;;;;;;4.45;3.13;;;;;;;;;;5069466;28;20506;-72
2021/06/15 04:08:21;;;;;;;4.00;2.70;;;;;;;;;;5070000;28;20526;-72
2021/06/15 04:10:50;;;;;;;3.15;2.85;;;;;;;;;;5070105;28;20079;-72
2021/06/15 04:13:17;;;;;;;2.83;2.63;;;;;;;;;;5068804;28;20109;-72
2021/06/15 04:15:44;;;;;;;3.25;2.88;;;;;;;;;;5070255;28;20041;-72
2021/06/15 04:18:13;;;;;;;4.57;3.20;;;;;;;;;;5069149;28;20048;-72
2021/06/15 04:20:40;;;;;;;3.35;2.70;;;;;;;;;;5069890;28;20052;-72
2021/06/15 04:23:07;;;;;;;3.47;3.03;;;;;;;;;;5068308;28;20051;-72
2021/06/15 04:25:36;;;;;;;4.13;2.88;;;;;;;;;;5069661;28;20067;-72
2021/06/15 04:28:03;;;;;;;5.07;3.08;;;;;;;;;;5069068;28;20052;-72
2021/06/15 04:30:30;;;;;;;3.35;2.90;;;;;;;;;;5069386;28;20059;-72
2021/06/15 04:33:02;;;;;;;5.35;3.50;;;;;;;;;;5068664;28;20182;-72
2021/06/15 04:35:41;;;;;;;4.05;2.67;;;;;;;;;;5067159;28;20064;-72
2021/06/15 04:38:13;;;;;;;3.60;2.78;;;;;;;;;;5068762;28;20522;-72
2021/06/15 04:40:41;;;;;;;2.88;2.67;;;;;;;;;;5068894;28;20147;-72
2021/06/15 04:43:27;;;;;;;3.75;2.65;;;;;;;;;;5068472;28;20048;-72
2021/06/15 04:45:55;;;;;;;6.30;3.97;;;;;;;;;;5069059;28;20044;-72
2021/06/15 04:48:24;;;;;;;4.35;3.05;;;;;;;;;;5069428;28;20044;-72
2021/06/15 04:50:50;;;;;;;6.05;2.83;;;;;;;;;;5069128;28;20049;-72
2021/06/15 04:53:17;;;;;;;3.78;3.33;;;;;;;;;;5068420;28;20068;-71
2021/06/15 04:55:43;;;;;;;3.67;3.33;;;;;;;;;;5069501;28;20052;-71
2021/06/15 04:58:10;;;;;;;3.38;3.08;;;;;;;;;;5068541;28;20078;-71
2021/06/15 05:00:38;;;;;;;4.65;2.33;;;;;;;;;;5069033;28;20059;-71
2021/06/15 05:03:05;;;;;;;4.97;3.25;;;;;;;;;;5068166;28;20499;-72
2021/06/15 05:05:31;;;;;;;5.35;3.42;;;;;;;;;;5069104;28;20052;-72
2021/06/15 05:07:59;;;;;;;5.85;4.38;;;;;;;;;;5068489;28;20106;-71
2021/06/15 05:10:27;;;;;;;5.22;3.28;;;;;;;;;;5069134;28;20147;-71
2021/06/15 05:12:53;;;;;;;3.55;2.58;;;;;;;;;;5068233;28;20417;-71
2021/06/15 05:15:21;;;;;;;3.45;2.60;;;;;;;;;;5069062;28;20044;-71
2021/06/15 05:17:48;;;;;;;3.38;3.08;;;;;;;;;;5068929;28;20052;-72
2021/06/15 05:20:15;;;;;;;3.47;2.67;;;;;;;;;;5068906;28;20049;-71
2021/06/15 05:22:50;;;;;;;3.58;3.03;;;;;;;;;;5068949;28;20055;-71
2021/06/15 05:25:17;;;;;;;2.25;2.05;;;;;;;;;;5068655;28;20079;-72
2021/06/15 05:27:43;;;;;;;4.32;3.03;;;;;;;;;;5069007;28;20125;-72
2021/06/15 05:30:10;;;;;;;3.75;3.10;;;;;;;;;;5068438;28;20677;-71
2021/06/15 05:32:36;;;;;;;4.40;2.35;;;;;;;;;;5066282;28;20087;-71
2021/06/15 05:35:03;;;;;;;3.80;3.50;;;;;;;;;;5067907;28;20533;-71
2021/06/15 05:37:29;;;;;;;4.28;3.42;;;;;;;;;;5068991;28;20047;-72
2021/06/15 05:39:58;;;;;;;3.83;3.15;;;;;;;;;;5068132;28;20407;-72
2021/06/15 05:42:24;;;;;;;4.65;2.78;;;;;;;;;;5068561;28;20518;-72
2021/06/15 05:44:51;;;;;;;5.75;3.28;;;;;;;;;;5068407;28;20078;-72
2021/06/15 05:47:17;;;;;;;5.60;3.88;;;;;;;;;;5068858;28;20054;-72
2021/06/15 05:49:43;;;;;;;8.50;2.83;;;;;;;;;;5068593;28;20140;-72
2021/06/15 05:52:11;;;;;;;5.85;3.13;;;;;;;;;;5071311;28;20052;-72
2021/06/15 05:54:37;;;;;;;6.47;2.75;;;;;;;;;;5069514;28;20047;-73
2021/06/15 05:57:04;;;;;;;4.38;3.00;;;;;;;;;;5077808;28;20240;-71
2021/06/15 05:59:30;;;;;;;4.05;3.30;;;;;;;;;;5067492;28;20049;-71
2021/06/15 06:01:56;;;;;;;9.82;4.22;;;;;;;;;;5062728;28;20048;-71
2021/06/15 06:04:25;;;;;;;7.72;3.22;;;;;;;;;;5070636;28;20095;-71
2021/06/15 06:09:41;;;;;;;4.28;3.10;;;;;;;;;;5068843;28;20040;-72
2021/06/15 06:12:08;;;;;;;5.13;4.13;;;;;;;;;;5068781;28;20572;-71
2021/06/15 06:14:34;;;;;;;9.45;3.83;;;;;;;;;;5069438;28;20057;-78
2021/06/15 06:17:01;;;;;;;5.38;3.75;;;;;;;;;;5067160;28;20105;-78
2021/06/15 06:19:27;;;;;;;7.45;3.63;;;;;;;;;;5069551;28;20052;-78
2021/06/15 06:21:54;;;;;;;9.50;3.55;;;;;;;;;;5068476;28;20093;-77
2021/06/15 06:24:20;;;;;;;7.85;3.35;;;;;;;;;;5065949;28;20044;-78
2021/06/15 06:26:49;;;;;;;8.65;4.30;;;;;;;;;;5070023;28;20593;-79
2021/06/15 06:29:15;;;;;;;6.40;4.45;;;;;;;;;;5067351;28;20052;-79
2021/06/15 06:31:42;;;;;;;11.30;3.97;;;;;;;;;;5068996;28;20171;-76
2021/06/15 06:34:08;;;;;;;6.68;4.00;;;;;;;;;;5065682;28;20056;-78
2021/06/15 06:36:34;;;;;;;6.47;4.10;;;;;;;;;;5063681;28;20044;-77
2021/06/15 06:39:00;;;;;;;9.32;5.35;;;;;;;;;;5061799;28;20083;-77
2021/06/15 06:41:27;;;;;;;5.25;4.10;;;;;;;;;;5055778;28;20044;-77
2021/06/15 06:43:54;;;;;;;11.35;5.15;;;;;;;;;;5060002;28;20037;-76
2021/06/15 06:46:20;;;;;;;8.38;3.67;;;;;;;;;;5068329;28;20033;-79
2021/06/15 06:48:46;;;;;;;8.13;4.28;;;;;;;;;;5066334;28;20040;-77
2021/06/15 06:51:12;;;;;;;7.45;3.70;;;;;;;;;;5065273;28;20060;-81
2021/06/15 06:53:38;;;;;;;11.15;3.90;;;;;;;;;;5049456;28;20432;-78
2021/06/15 06:56:06;;;;;;;7.03;3.20;;;;;;;;;;5063560;28;20079;-77
2021/06/15 06:58:33;;;;;;;7.38;3.78;;;;;;;;;;5062434;28;20472;-77
2021/06/15 07:00:59;;;;;;;22.00;4.85;;;;;;;;;;5060049;28;20048;-76
2021/06/15 07:03:25;;;;;;;4.82;3.40;;;;;;;;;;5061240;28;20045;-79
2021/06/15 07:05:51;;;;;;;8.48;3.67;;;;;;;;;;5056601;28;20048;-75
2021/06/15 07:08:17;;;;;;;13.18;4.97;;;;;;;;;;5060466;28;20052;-73
2021/06/15 07:10:43;;;;;;;11.75;4.15;;;;;;;;;;5062179;28;20457;-74
2021/06/15 07:13:09;;;;;;;12.55;3.85;;;;;;;;;;5060612;28;20057;-78
2021/06/15 07:15:35;;;;;;;5.95;3.90;;;;;;;;;;5060397;28;20091;-77
2021/06/15 07:18:01;;;;;;;15.80;4.07;;;;;;;;;;5041392;28;20460;-77
2021/06/15 07:20:28;;;;;;;8.27;4.10;;;;;;;;;;5057608;28;20220;-76
2021/06/15 07:22:54;;;;;;;7.22;3.50;;;;;;;;;;5060993;28;20078;-76
2021/06/15 07:25:20;;;;;;;4.57;4.05;;;;;;;;;;5062178;28;20036;-76
2021/06/15 07:27:47;;;;;;;5.25;4.03;;;;;;;;;;5062514;28;20506;-75
2021/06/15 07:30:13;;;;;;;9.13;3.45;;;;;;;;;;5059072;28;20060;-75
2021/06/15 07:32:40;;;;;;;7.47;3.53;;;;;;;;;;5061830;28;20432;-76
2021/06/15 07:35:06;;;;;;;6.32;3.75;;;;;;;;;;5059529;28;20131;-75
2021/06/15 07:37:32;;;;;;;12.30;4.50;;;;;;;;;;5061505;28;20059;-70
2021/06/15 07:39:58;;;;;;;7.40;3.72;;;;;;;;;;5059582;28;20055;-73
2021/06/15 07:42:28;;;;;;;7.30;4.47;;;;;;;;;;5062627;28;20124;-72
2021/06/15 07:44:54;;;;;;;7.53;3.13;;;;;;;;;;5058916;28;20044;-70
2021/06/15 07:47:20;;;;;;;7.15;3.20;;;;;;;;;;5059017;28;20048;-72
2021/06/15 07:49:46;;;;;;;7.32;3.70;;;;;;;;;;5061382;28;20131;-71
2021/06/15 07:52:13;;;;;;;6.57;3.45;;;;;;;;;;5055080;28;20066;-71
2021/06/15 07:54:41;;;;;;;8.02;3.10;;;;;;;;;;5060899;28;20268;-72
2021/06/15 07:57:08;;;;;;;7.80;3.42;;;;;;;;;;5059862;28;20090;-72
2021/06/15 07:59:35;;;;;;;8.93;4.20;;;;;;;;;;5060995;28;20894;-73
2021/06/15 08:02:01;;;;;;;5.25;4.20;;;;;;;;;;5046034;28;20090;-71
2021/06/15 08:04:27;;;;;;;7.25;3.83;;;;;;;;;;5059462;28;21517;-72
2021/06/15 08:06:53;;;;;;;6.90;3.75;;;;;;;;;;5060064;28;20041;-71
2021/06/15 08:09:19;;;;;;;6.50;3.22;;;;;;;;;;5061961;28;20059;-71
2021/06/15 08:11:45;;;;;;;10.23;4.30;;;;;;;;;;5059529;28;20068;-71
2021/06/15 08:14:12;;;;;;;12.82;4.28;;;;;;;;;;5061109;28;20190;-70
2021/06/15 08:16:38;;;;;;;11.43;3.50;;;;;;;;;;5061817;28;20125;-71
2021/06/15 08:19:04;;;;;;;5.70;4.22;;;;;;;;;;5053355;28;20044;-71
2021/06/15 08:21:31;;;;;;;6.85;3.42;;;;;;;;;;5060229;28;20136;-71
2021/06/15 08:23:57;;;;;;;8.50;4.18;;;;;;;;;;5058884;28;20041;-70
2021/06/15 08:26:23;;;;;;;5.30;3.30;;;;;;;;;;5062342;28;20053;-73
2021/06/15 08:28:49;;;;;;;4.05;3.60;;;;;;;;;;5061741;28;20052;-69
2021/06/15 08:31:15;;;;;;;4.13;3.58;;;;;;;;;;5059616;28;20064;-71
2021/06/15 08:33:41;;;;;;;4.93;4.40;;;;;;;;;;5051169;28;21287;-72
2021/06/15 08:36:08;;;;;;;12.55;4.40;;;;;;;;;;5060527;28;20903;-72
2021/06/15 08:38:34;;;;;;;8.50;3.95;;;;;;;;;;5061961;28;20385;-71
2021/06/15 08:41:00;;;;;;;12.05;3.53;;;;;;;;;;5061094;28;20052;-72
2021/06/15 08:43:27;;;;;;;6.72;4.22;;;;;;;;;;5059056;28;20571;-72
2021/06/15 08:45:53;;;;;;;6.63;3.67;;;;;;;;;;5061086;28;20530;-72
2021/06/15 08:48:21;;;;;;;9.00;3.97;;;;;;;;;;5061788;28;20119;-72
2021/06/15 08:50:47;;;;;;;8.88;3.90;;;;;;;;;;5058571;28;20039;-73
2021/06/15 08:53:13;;;;;;;4.28;2.92;;;;;;;;;;5056733;28;20152;-71
2021/06/15 08:55:40;;;;;;;8.68;3.20;;;;;;;;;;5062372;28;20060;-69
2021/06/15 08:58:24;;;;;;;7.32;3.08;;;;;;;;;;5059939;28;20144;-71
2021/06/15 09:00:50;;;;;;;4.90;3.22;;;;;;;;;;5057102;28;20044;-71
2021/06/15 09:03:17;;;;;;;20.27;5.30;;;;;;;;;;5060124;28;20041;-72
2021/06/15 09:05:43;;;;;;;5.75;3.22;;;;;;;;;;5054021;28;20045;-72
2021/06/15 09:08:13;;;;;;;6.72;3.60;;;;;;;;;;5058291;28;20298;-71
2021/06/15 09:10:44;;;;;;;4.47;3.50;;;;;;;;;;5058082;28;20055;-71
2021/06/15 09:13:31;;;;;;;3.97;2.85;;;;;;;;;;5060481;28;20147;-71
2021/06/15 09:15:57;;;;;;;8.30;3.55;;;;;;;;;;5059362;28;20048;-77
2021/06/15 09:18:30;;;;;;;9.00;4.18;;;;;;;;;;5065410;28;20050;-70
2021/06/15 09:20:59;;;;;;;9.15;3.47;;;;;;;;;;5066965;28;20102;-72
2021/06/15 09:23:34;;;;;;;5.65;3.67;;;;;;;;;;5066066;28;20086;-70
2021/06/15 09:26:00;;;;;;;13.30;5.00;;;;;;;;;;5068422;28;20404;-69
2021/06/15 09:28:26;;;;;;;5.88;3.70;;;;;;;;;;5071107;28;20106;-70
2021/06/15 09:31:02;;;;;;;3.53;3.20;;;;;;;;;;5075992;28;20036;-70
2021/06/15 09:33:37;;;;;;;5.85;3.95;;;;;;;;;;5069922;28;20094;-70
2021/06/15 09:36:07;;;;;;;7.53;3.33;;;;;;;;;;5067688;28;20040;-70
2021/06/15 09:38:34;;;;;;;5.28;3.75;;;;;;;;;;5067848;28;20410;-71
2021/06/15 09:41:00;;;;;;;10.43;5.85;;;;;;;;;;5067335;28;20059;-71
2021/06/15 09:43:26;;;;;;;11.43;7.00;;;;;;;;;;5070666;28;20060;-71
2021/06/15 09:45:52;;;;;;;10.63;6.97;;;;;;;;;;5069643;28;20052;-70
2021/06/15 09:48:23;;;;;;;11.40;6.70;;;;;;;;;;5070365;28;20048;-70
2021/06/15 09:50:50;;;;;;;12.40;6.75;;;;;;;;;;5066230;28;20055;-71
2021/06/15 09:53:27;;;;;;;8.13;5.50;;;;;;;;;;5069832;28;20088;-72
2021/06/15 09:55:53;;;;;;;10.65;6.05;;;;;;;;;;5068056;28;20044;-71
2021/06/15 09:58:39;;;;;;;5.18;4.70;;;;;;;;;;5069739;28;21430;-73
2021/06/15 10:01:05;;;;;;;9.18;4.85;;;;;;;;;;5066258;28;20510;-71
2021/06/15 10:03:31;;;;;;;7.63;4.82;;;;;;;;;;5064162;28;20071;-69
2021/06/15 10:05:57;;;;;;;6.75;5.18;;;;;;;;;;5068134;28;20037;-69
2021/06/15 10:08:40;;;;;;;10.50;5.78;;;;;;;;;;5070085;28;20067;-71
2021/06/15 10:11:06;;;;;;;6.18;5.57;;;;;;;;;;5066854;28;20154;-70
2021/06/15 10:13:32;;;;;;;5.97;5.38;;;;;;;;;;5069419;28;20075;-70
2021/06/15 10:15:59;;;;;;;5.90;5.00;;;;;;;;;;5069256;28;20098;-71
2021/06/15 10:18:25;;;;;;;7.28;4.78;;;;;;;;;;5069512;28;20059;-72
2021/06/15 10:20:51;;;;;;;10.77;5.28;;;;;;;;;;5066401;28;20491;-70
2021/06/15 10:23:17;;;;;;;6.22;5.68;;;;;;;;;;5068938;28;20163;-70
2021/06/15 10:25:43;;;;;;;7.47;4.80;;;;;;;;;;5069279;28;20448;-70
2021/06/15 10:28:13;;;;;;;5.88;5.28;;;;;;;;;;5068349;28;20056;-71
2021/06/15 10:30:42;;;;;;;6.10;5.53;;;;;;;;;;5076014;28;20381;-72
2021/06/15 10:33:16;;;;;;;12.38;6.32;;;;;;;;;;5067673;28;20397;-71
2021/06/15 10:35:44;;;;;;;7.80;5.35;;;;;;;;;;5069228;28;20044;-71
2021/06/15 10:38:11;;;;;;;6.55;5.63;;;;;;;;;;5068133;28;20063;-70
2021/06/15 10:40:38;;;;;;;6.35;5.72;;;;;;;;;;5070406;28;20446;-71
2021/06/15 10:43:17;;;;;;;6.85;5.25;;;;;;;;;;5069202;28;20040;-70
2021/06/15 10:45:44;;;;;;;6.15;5.35;;;;;;;;;;5060108;28;20525;-70
2021/06/15 10:48:29;;;;;;;17.77;6.80;;;;;;;;;;5069326;28;20052;-70
2021/06/15 10:50:57;;;;;;;8.00;4.90;;;;;;;;;;5069470;28;20052;-70
2021/06/15 10:53:34;;;;;;;8.65;5.85;;;;;;;;;;5070434;28;20509;-70
2021/06/15 10:56:05;;;;;;;5.47;4.97;;;;;;;;;;5069730;28;20052;-70
2021/06/15 10:58:51;;;;;;;5.63;4.40;;;;;;;;;;5070414;28;20103;-70
2021/06/15 11:01:25;;;;;;;8.13;5.13;;;;;;;;;;5054580;28;20048;-70
2021/06/15 11:03:51;;;;;;;;;;;;;;;;;;5068398;28;20045;-71
2021/06/15 11:06:17;;;;;;;7.25;4.43;;;;;;;;;;5067698;28;19986;-71
2021/06/15 11:08:43;;;;;;;11.45;6.13;;;;;;;;;;5069581;28;20216;-71
2021/06/15 11:11:19;;;;;;;6.00;4.57;;;;;;;;;;5069197;28;20155;-71
2021/06/15 11:13:53;;;;;;;5.93;5.32;;;;;;;;;;5070161;28;20059;-71
2021/06/15 11:16:35;;;;;;;7.25;4.93;;;;;;;;;;5069191;28;20056;-71
2021/06/15 11:19:20;;;;;;;6.65;6.05;;;;;;;;;;5066524;28;20139;-71
2021/06/15 11:21:48;;;;;;;5.75;4.35;;;;;;;;;;5054253;28;20048;-72
2021/06/15 11:24:25;;;;;;;6.07;5.50;;;;;;;;;;5069355;28;20069;-72
2021/06/15 11:26:53;;;;;;;5.88;5.07;;;;;;;;;;5069214;28;20072;-72
2021/06/15 11:29:37;;;;;;;5.38;4.85;;;;;;;;;;5078646;28;20048;-71
2021/06/15 11:32:17;;;;;;;7.28;4.35;;;;;;;;;;5088632;28;20062;-71
2021/06/15 11:35:03;;;;;;;9.93;5.93;;;;;;;;;;5058705;28;20063;-73
2021/06/15 11:37:34;;;;;;;8.88;5.97;;;;;;;;;;5062170;28;20096;-72
2021/06/15 11:40:16;;;;;;;7.28;4.70;;;;;;;;;;5057551;28;20560;-72
2021/06/15 11:42:43;;;;;;;9.40;5.67;;;;;;;;;;5062057;28;20048;-72
2021/06/15 11:45:29;;;;;;;5.63;5.10;;;;;;;;;;5061042;28;20075;-72
2021/06/15 11:47:56;;;;;;;5.57;4.70;;;;;;;;;;5062549;28;20044;-72
2021/06/15 11:50:25;;;;;;;7.88;6.13;;;;;;;;;;5056843;28;20045;-71
2021/06/15 11:52:53;;;;;;;7.20;5.63;;;;;;;;;;5060206;28;20075;-71
2021/06/15 11:55:20;;;;;;;8.20;6.22;;;;;;;;;;5061202;28;20044;-70
2021/06/15 11:57:46;;;;;;;8.27;5.07;;;;;;;;;;5062835;28;20523;-70
2021/06/15 12:00:16;;;;;;;7.38;4.65;;;;;;;;;;5061239;28;20132;-69
2021/06/15 12:02:43;;;;;;;7.63;5.43;;;;;;;;;;5060943;28;21948;-71
2021/06/15 12:05:17;;;;;;;4.97;4.40;;;;;;;;;;5059723;28;20044;-71
2021/06/15 12:07:51;;;;;;;9.98;4.80;;;;;;;;;;5060881;28;20105;-72
2021/06/15 12:10:17;;;;;;;9.50;5.45;;;;;;;;;;5062816;28;20052;-70
2021/06/15 12:12:55;;;;;;;7.25;4.35;;;;;;;;;;5062768;28;20044;-70
2021/06/15 12:15:25;;;;;;;8.02;5.20;;;;;;;;;;5058527;28;20131;-72
2021/06/15 12:17:51;;;;;;;6.45;5.38;;;;;;;;;;5061962;28;20467;-72
2021/06/15 12:20:22;;;;;;;6.18;5.40;;;;;;;;;;5061106;28;20060;-72
2021/06/15 12:22:48;;;;;;;5.47;5.00;;;;;;;;;;5061731;28;20040;-73
2021/06/15 12:25:14;;;;;;;10.27;5.55;;;;;;;;;;5058401;28;20438;-71
2021/06/15 12:27:40;;;;;;;6.80;5.07;;;;;;;;;;5061529;28;20503;-70
2021/06/15 12:30:07;;;;;;;5.50;4.60;;;;;;;;;;5061010;28;20490;-71
2021/06/15 12:32:46;;;;;;;7.80;5.13;;;;;;;;;;5060591;28;20048;-71
2021/06/15 12:35:19;;;;;;;5.97;5.15;;;;;;;;;;5058718;28;20156;-71
2021/06/15 12:37:45;;;;;;;6.05;4.93;;;;;;;;;;5061538;28;20102;-71
2021/06/15 12:40:12;;;;;;;5.22;4.72;;;;;;;;;;5060987;28;21303;-71
2021/06/15 12:42:38;;;;;;;5.13;4.40;;;;;;;;;;5061496;28;20052;-71
2021/06/15 12:45:05;;;;;;;4.85;4.38;;;;;;;;;;5058272;28;20502;-71
2021/06/15 12:47:31;;;;;;;6.75;6.07;;;;;;;;;;5062240;28;20060;-72
2021/06/15 12:49:57;;;;;;;7.53;5.75;;;;;;;;;;5061755;28;20052;-72
2021/06/15 12:52:34;;;;;;;7.68;5.68;;;;;;;;;;5061941;28;20044;-72
2021/06/15 12:55:18;;;;;;;6.43;5.68;;;;;;;;;;5058321;28;20045;-72
2021/06/15 12:58:01;;;;;;;6.72;5.50;;;;;;;;;;5063160;28;20083;-72
2021/06/15 13:00:28;;;;;;;7.40;5.82;;;;;;;;;;5060631;28;20159;-71
2021/06/15 13:03:08;;;;;;;17.13;7.57;;;;;;;;;;5060413;28;20052;-70
2021/06/15 13:05:34;;;;;;;14.20;8.35;;;;;;;;;;5058996;28;20063;-70
2021/06/15 13:08:00;;;;;;;8.50;6.15;;;;;;;;;;5061910;28;20057;-69
2021/06/15 13:10:27;;;;;;;8.88;6.18;;;;;;;;;;5062531;28;20068;-70
2021/06/15 13:12:54;;;;;;;7.43;5.32;;;;;;;;;;5062289;28;20048;-70
2021/06/15 13:15:21;;;;;;;12.68;5.30;;;;;;;;;;5060118;28;20521;-70
2021/06/15 13:17:59;;;;;;;10.15;5.75;;;;;;;;;;5061798;28;20052;-70
2021/06/15 13:20:26;;;;;;;7.63;5.43;;;;;;;;;;5060069;28;20052;-70
2021/06/15 13:22:52;;;;;;;6.05;5.38;;;;;;;;;;5061943;28;20048;-71
2021/06/15 13:25:20;;;;;;;11.43;4.50;;;;;;;;;;5059374;28;20495;-71
2021/06/15 13:27:50;;;;;;;6.68;4.50;;;;;;;;;;5061955;28;20159;-70
2021/06/15 13:30:20;;;;;;;7.70;5.53;;;;;;;;;;5061715;28;20049;-70
2021/06/15 13:32:49;;;;;;;12.63;6.30;;;;;;;;;;5061087;28;20051;-70
2021/06/15 13:35:23;;;;;;;7.25;4.90;;;;;;;;;;5059123;28;20305;-71
2021/06/15 13:37:51;;;;;;;7.88;3.97;;;;;;;;;;5062139;28;20036;-71
2021/06/15 13:40:29;;;;;;;12.25;5.88;;;;;;;;;;5061096;28;20458;-71
2021/06/15 13:42:56;;;;;;;8.60;5.90;;;;;;;;;;5059068;28;20047;-72
2021/06/15 13:45:25;;;;;;;6.72;4.25;;;;;;;;;;5054611;28;20870;-72
2021/06/15 13:47:52;;;;;;;6.03;4.53;;;;;;;;;;5053566;28;20138;-70
2021/06/15 13:50:20;;;;;;;5.90;4.32;;;;;;;;;;5056303;28;20060;-71
2021/06/15 13:52:47;;;;;;;6.57;4.28;;;;;;;;;;5055841;28;20048;-72
2021/06/15 13:55:13;;;;;;;5.88;3.25;;;;;;;;;;5052642;28;20432;-73
2021/06/15 13:57:39;;;;;;;5.97;4.57;;;;;;;;;;5034413;28;20714;-71
2021/06/15 14:00:08;;;;;;;6.80;5.53;;;;;;;;;;5053731;28;20052;-71
2021/06/15 14:02:34;;;;;;;5.57;4.65;;;;;;;;;;5054673;28;20056;-71
2021/06/15 14:05:00;;;;;;;9.60;5.68;;;;;;;;;;5050269;28;20056;-71
2021/06/15 14:07:26;;;;;;;6.97;5.32;;;;;;;;;;5055467;28;20450;-71
2021/06/15 14:09:52;;;;;;;10.80;5.60;;;;;;;;;;5056590;28;20051;-71
2021/06/15 14:12:18;;;;;;;11.45;5.80;;;;;;;;;;5058333;28;20101;-71
2021/06/15 14:14:44;;;;;;;8.27;6.38;;;;;;;;;;5056664;28;20089;-69
2021/06/15 14:17:11;;;;;;;7.07;5.40;;;;;;;;;;5058088;28;20134;-71
2021/06/15 14:19:37;;;;;;;8.13;6.10;;;;;;;;;;5059727;28;20127;-71
2021/06/15 14:22:03;;;;;;;5.47;4.72;;;;;;;;;;5058764;28;20580;-71
2021/06/15 14:24:29;;;;;;;10.50;6.25;;;;;;;;;;5056420;28;20679;-71
2021/06/15 14:27:02;;;;;;;6.68;5.50;;;;;;;;;;5060264;28;20831;-71
2021/06/15 14:29:29;;;;;;;12.55;6.28;;;;;;;;;;5060157;28;20045;-72
2021/06/15 14:31:55;;;;;;;6.70;5.28;;;;;;;;;;5056180;28;20131;-72
2021/06/15 14:34:22;;;;;;;11.00;5.03;;;;;;;;;;5056559;28;20130;-72
2021/06/15 14:36:49;;;;;;;9.02;4.38;;;;;;;;;;5059545;28;20721;-72
2021/06/15 14:39:15;;;;;;;5.70;4.80;;;;;;;;;;5058687;28;20940;-72
2021/06/15 14:41:41;;;;;;;11.48;5.30;;;;;;;;;;5058192;28;20041;-72
2021/06/15 14:44:07;;;;;;;6.75;4.90;;;;;;;;;;5053900;28;22172;-72
2021/06/15 14:46:35;;;;;;;5.72;4.88;;;;;;;;;;5054647;28;20052;-71
2021/06/15 14:49:01;;;;;;;6.88;4.78;;;;;;;;;;5056762;28;20048;-69
2021/06/15 14:51:27;;;;;;;4.82;4.32;;;;;;;;;;5056995;28;20048;-70
2021/06/15 14:53:54;;;;;;;8.35;5.70;;;;;;;;;;5055392;28;20844;-71